sensor_id;sensor_type;location;lat;lon;timestamp;temperature;humidity
1568;DHT22;777;47.156;8.326;2023-03-31T00:01:09;9.20;99.90
1568;DHT22;777;47.156;8.326;2023-03-31T00:03:36;9.20;99.90
1568;DHT22;777;47.156;8.326;2023-03-31T00:06:10;9.20;99.90
1568;DHT22;777;47.156;8.326;2023-03-31T00:08:43;9.30;99.90
1568;DHT22;777;47.156;8.326;2023-03-31T00:11:10;9.20;99.90
1568;DHT22;777;47.156;8.326;2023-03-31T00:13:38;9.20;99.90
1568;DHT22;777;47.156;8.326;2023-03-31T00:16:08;9.30;99.90
1568;DHT22;777;47.156;8.326;2023-03-31T00:18:36;9.40;99.90
1568;DHT22;777;47.156;8.326;2023-03-31T00:21:07;9.40;99.90
1568;DHT22;777;47.156;8.326;2023-03-31T00:23:34;9.40;99.90
1568;DHT22;777;47.156;8.326;2023-03-31T00:26:01;9.50;99.90
1568;DHT22;777;47.156;8.326;2023-03-31T00:28:28;9.50;99.90
1568;DHT22;777;47.156;8.326;2023-03-31T00:31:00;9.50;99.90
1568;DHT22;777;47.156;8.326;2023-03-31T00:33:28;9.50;99.90
1568;DHT22;777;47.156;8.326;2023-03-31T00:35:55;9.40;99.90
1568;DHT22;777;47.156;8.326;2023-03-31T00:38:27;9.30;99.90
1568;DHT22;777;47.156;8.326;2023-03-31T00:40:55;9.30;99.90
1568;DHT22;777;47.156;8.326;2023-03-31T00:43:29;9.20;99.90
1568;DHT22;777;47.156;8.326;2023-03-31T00:46:05;9.30;99.90
1568;DHT22;777;47.156;8.326;2023-03-31T00:48:35;9.30;99.90
1568;DHT22;777;47.156;8.326;2023-03-31T00:51:04;9.20;99.90
1568;DHT22;777;47.156;8.326;2023-03-31T00:53:33;9.20;99.90
1568;DHT22;777;47.156;8.326;2023-03-31T00:56:06;9.20;99.90
1568;DHT22;777;47.156;8.326;2023-03-31T00:58:34;9.20;99.90
1568;DHT22;777;47.156;8.326;2023-03-31T01:01:11;9.20;99.90
1568;DHT22;777;47.156;8.326;2023-03-31T01:03:41;9.30;99.90
1568;DHT22;777;47.156;8.326;2023-03-31T01:06:12;9.40;99.90
1568;DHT22;777;47.156;8.326;2023-03-31T01:08:44;9.50;99.90
1568;DHT22;777;47.156;8.326;2023-03-31T01:11:14;9.50;99.90
1568;DHT22;777;47.156;8.326;2023-03-31T01:13:43;9.50;99.90
1568;DHT22;777;47.156;8.326;2023-03-31T01:16:12;9.50;99.90
1568;DHT22;777;47.156;8.326;2023-03-31T01:18:38;9.60;99.90
1568;DHT22;777;47.156;8.326;2023-03-31T01:24:57;9.50;99.90
1568;DHT22;777;47.156;8.326;2023-03-31T01:27:48;9.50;99.90
1568;DHT22;777;47.156;8.326;2023-03-31T01:30:47;9.50;99.90
1568;DHT22;777;47.156;8.326;2023-03-31T01:40:02;9.50;99.90
1568;DHT22;777;47.156;8.326;2023-03-31T01:42:37;9.60;99.90
1568;DHT22;777;47.156;8.326;2023-03-31T01:45:14;9.40;99.90
1568;DHT22;777;47.156;8.326;2023-03-31T01:47:48;9.30;99.90
1568;DHT22;777;47.156;8.326;2023-03-31T01:50:25;9.10;99.90
1568;DHT22;777;47.156;8.326;2023-03-31T01:52:55;9.00;99.90
1568;DHT22;777;47.156;8.326;2023-03-31T01:55:29;9.10;99.90
1568;DHT22;777;47.156;8.326;2023-03-31T01:58:02;9.20;99.90
1568;DHT22;777;47.156;8.326;2023-03-31T02:00:35;9.10;99.90
1568;DHT22;777;47.156;8.326;2023-03-31T02:03:09;9.20;99.90
1568;DHT22;777;47.156;8.326;2023-03-31T02:05:41;9.20;99.90
1568;DHT22;777;47.156;8.326;2023-03-31T02:08:11;9.30;99.90
1568;DHT22;777;47.156;8.326;2023-03-31T02:10:42;9.30;99.90
1568;DHT22;777;47.156;8.326;2023-03-31T02:13:12;9.30;99.90
1568;DHT22;777;47.156;8.326;2023-03-31T02:15:48;9.30;99.90
1568;DHT22;777;47.156;8.326;2023-03-31T02:18:19;9.30;99.90
1568;DHT22;777;47.156;8.326;2023-03-31T02:20:48;9.30;99.90
1568;DHT22;777;47.156;8.326;2023-03-31T02:23:18;9.20;99.90
1568;DHT22;777;47.156;8.326;2023-03-31T02:25:50;9.20;99.90
1568;DHT22;777;47.156;8.326;2023-03-31T02:28:21;9.20;99.90
1568;DHT22;777;47.156;8.326;2023-03-31T02:30:55;9.20;99.90
1568;DHT22;777;47.156;8.326;2023-03-31T02:33:23;9.20;99.90
1568;DHT22;777;47.156;8.326;2023-03-31T02:35:51;9.30;99.90
1568;DHT22;777;47.156;8.326;2023-03-31T02:38:18;9.20;99.90
1568;DHT22;777;47.156;8.326;2023-03-31T02:40:47;9.20;99.90
1568;DHT22;777;47.156;8.326;2023-03-31T02:43:14;9.20;99.90
1568;DHT22;777;47.156;8.326;2023-03-31T02:45:43;9.10;99.90
1568;DHT22;777;47.156;8.326;2023-03-31T02:48:15;9.20;99.90
1568;DHT22;777;47.156;8.326;2023-03-31T02:51:08;9.10;99.90
1568;DHT22;777;47.156;8.326;2023-03-31T02:53:49;9.10;99.90
1568;DHT22;777;47.156;8.326;2023-03-31T02:56:33;9.10;99.90
1568;DHT22;777;47.156;8.326;2023-03-31T02:59:15;9.10;99.90
1568;DHT22;777;47.156;8.326;2023-03-31T03:01:53;9.10;99.90
1568;DHT22;777;47.156;8.326;2023-03-31T03:04:36;9.00;99.90
1568;DHT22;777;47.156;8.326;2023-03-31T03:07:14;9.00;99.90
1568;DHT22;777;47.156;8.326;2023-03-31T03:09:50;8.90;99.90
1568;DHT22;777;47.156;8.326;2023-03-31T03:12:24;8.90;99.90
1568;DHT22;777;47.156;8.326;2023-03-31T03:14:56;8.90;99.90
1568;DHT22;777;47.156;8.326;2023-03-31T03:17:27;8.80;99.90
1568;DHT22;777;47.156;8.326;2023-03-31T03:19:58;8.90;99.90
1568;DHT22;777;47.156;8.326;2023-03-31T03:22:26;9.00;99.90
1568;DHT22;777;47.156;8.326;2023-03-31T03:24:53;9.00;99.90
1568;DHT22;777;47.156;8.326;2023-03-31T03:27:22;9.00;99.90
1568;DHT22;777;47.156;8.326;2023-03-31T03:29:49;9.00;99.90
1568;DHT22;777;47.156;8.326;2023-03-31T03:32:16;9.00;99.90
1568;DHT22;777;47.156;8.326;2023-03-31T03:34:43;8.90;99.90
1568;DHT22;777;47.156;8.326;2023-03-31T03:37:10;8.90;99.90
1568;DHT22;777;47.156;8.326;2023-03-31T03:39:37;8.80;99.90
1568;DHT22;777;47.156;8.326;2023-03-31T03:42:04;8.90;99.90
1568;DHT22;777;47.156;8.326;2023-03-31T03:44:32;8.90;99.90
1568;DHT22;777;47.156;8.326;2023-03-31T03:46:59;8.90;99.90
1568;DHT22;777;47.156;8.326;2023-03-31T03:49:26;9.00;99.90
1568;DHT22;777;47.156;8.326;2023-03-31T03:51:53;9.00;99.90
1568;DHT22;777;47.156;8.326;2023-03-31T03:54:20;9.00;99.90
1568;DHT22;777;47.156;8.326;2023-03-31T03:56:47;9.00;99.90
1568;DHT22;777;47.156;8.326;2023-03-31T03:59:14;8.90;99.90
1568;DHT22;777;47.156;8.326;2023-03-31T04:01:42;8.90;99.90
1568;DHT22;777;47.156;8.326;2023-03-31T04:04:09;8.90;99.90
1568;DHT22;777;47.156;8.326;2023-03-31T04:06:36;8.90;99.90
1568;DHT22;777;47.156;8.326;2023-03-31T04:09:03;9.10;99.90
1568;DHT22;777;47.156;8.326;2023-03-31T04:11:30;9.20;99.90
1568;DHT22;777;47.156;8.326;2023-03-31T04:13:57;9.30;99.90
1568;DHT22;777;47.156;8.326;2023-03-31T04:16:25;9.30;99.90
1568;DHT22;777;47.156;8.326;2023-03-31T04:18:53;9.40;99.90
1568;DHT22;777;47.156;8.326;2023-03-31T04:21:22;9.50;99.90
1568;DHT22;777;47.156;8.326;2023-03-31T04:23:50;9.50;99.90
1568;DHT22;777;47.156;8.326;2023-03-31T04:26:24;9.50;99.90
1568;DHT22;777;47.156;8.326;2023-03-31T04:28:56;9.50;99.90
1568;DHT22;777;47.156;8.326;2023-03-31T04:31:25;9.50;99.90
1568;DHT22;777;47.156;8.326;2023-03-31T04:33:56;9.40;99.90
1568;DHT22;777;47.156;8.326;2023-03-31T04:36:27;9.40;99.90
1568;DHT22;777;47.156;8.326;2023-03-31T04:38:56;9.40;99.90
1568;DHT22;777;47.156;8.326;2023-03-31T04:41:24;9.40;99.90
1568;DHT22;777;47.156;8.326;2023-03-31T04:43:52;9.30;99.90
1568;DHT22;777;47.156;8.326;2023-03-31T04:46:19;9.20;99.90
1568;DHT22;777;47.156;8.326;2023-03-31T04:48:46;9.20;99.90
1568;DHT22;777;47.156;8.326;2023-03-31T04:51:14;9.20;99.90
1568;DHT22;777;47.156;8.326;2023-03-31T04:53:41;9.30;99.90
1568;DHT22;777;47.156;8.326;2023-03-31T04:56:08;9.50;99.90
1568;DHT22;777;47.156;8.326;2023-03-31T04:58:35;9.60;99.90
1568;DHT22;777;47.156;8.326;2023-03-31T05:01:02;9.60;99.90
1568;DHT22;777;47.156;8.326;2023-03-31T05:03:30;9.60;99.90
1568;DHT22;777;47.156;8.326;2023-03-31T05:05:57;9.50;99.90
1568;DHT22;777;47.156;8.326;2023-03-31T05:08:26;9.40;99.90
1568;DHT22;777;47.156;8.326;2023-03-31T05:10:53;9.30;99.90
1568;DHT22;777;47.156;8.326;2023-03-31T05:13:19;9.40;99.90
1568;DHT22;777;47.156;8.326;2023-03-31T05:15:46;9.30;99.90
1568;DHT22;777;47.156;8.326;2023-03-31T05:18:15;9.40;99.90
1568;DHT22;777;47.156;8.326;2023-03-31T05:20:42;9.40;99.90
1568;DHT22;777;47.156;8.326;2023-03-31T05:23:09;9.50;99.90
1568;DHT22;777;47.156;8.326;2023-03-31T05:25:37;9.60;99.90
1568;DHT22;777;47.156;8.326;2023-03-31T05:28:07;9.60;99.90
1568;DHT22;777;47.156;8.326;2023-03-31T05:30:34;9.60;99.90
1568;DHT22;777;47.156;8.326;2023-03-31T05:33:01;9.70;99.90
1568;DHT22;777;47.156;8.326;2023-03-31T05:35:28;9.70;99.90
1568;DHT22;777;47.156;8.326;2023-03-31T05:37:55;9.70;99.90
1568;DHT22;777;47.156;8.326;2023-03-31T05:40:22;9.60;99.90
1568;DHT22;777;47.156;8.326;2023-03-31T05:42:50;9.60;99.90
1568;DHT22;777;47.156;8.326;2023-03-31T05:45:17;9.60;99.90
1568;DHT22;777;47.156;8.326;2023-03-31T05:47:44;9.70;99.90
1568;DHT22;777;47.156;8.326;2023-03-31T05:50:11;9.80;99.90
1568;DHT22;777;47.156;8.326;2023-03-31T05:52:38;9.80;99.90
1568;DHT22;777;47.156;8.326;2023-03-31T05:55:06;9.80;99.90
1568;DHT22;777;47.156;8.326;2023-03-31T05:57:33;9.90;99.90
1568;DHT22;777;47.156;8.326;2023-03-31T06:00:01;9.90;99.90
1568;DHT22;777;47.156;8.326;2023-03-31T06:02:30;10.00;99.90
1568;DHT22;777;47.156;8.326;2023-03-31T06:04:58;10.00;99.90
1568;DHT22;777;47.156;8.326;2023-03-31T06:07:25;10.10;99.90
1568;DHT22;777;47.156;8.326;2023-03-31T06:09:52;10.10;99.90
1568;DHT22;777;47.156;8.326;2023-03-31T06:12:19;10.20;99.90
1568;DHT22;777;47.156;8.326;2023-03-31T06:14:46;10.30;99.90
1568;DHT22;777;47.156;8.326;2023-03-31T06:17:14;10.40;99.90
1568;DHT22;777;47.156;8.326;2023-03-31T06:19:41;10.50;99.90
1568;DHT22;777;47.156;8.326;2023-03-31T06:22:08;10.50;99.90
1568;DHT22;777;47.156;8.326;2023-03-31T06:24:35;10.60;99.90
1568;DHT22;777;47.156;8.326;2023-03-31T06:27:01;10.60;99.90
1568;DHT22;777;47.156;8.326;2023-03-31T06:29:28;10.70;99.90
1568;DHT22;777;47.156;8.326;2023-03-31T06:31:55;10.80;99.90
1568;DHT22;777;47.156;8.326;2023-03-31T06:34:24;10.90;99.90
1568;DHT22;777;47.156;8.326;2023-03-31T06:36:51;11.00;99.90
1568;DHT22;777;47.156;8.326;2023-03-31T06:39:18;11.10;99.90
1568;DHT22;777;47.156;8.326;2023-03-31T06:41:44;11.20;99.90
1568;DHT22;777;47.156;8.326;2023-03-31T06:44:19;11.20;99.90
1568;DHT22;777;47.156;8.326;2023-03-31T06:46:47;11.30;99.90
1568;DHT22;777;47.156;8.326;2023-03-31T06:49:14;11.30;99.90
1568;DHT22;777;47.156;8.326;2023-03-31T06:51:43;11.30;99.90
1568;DHT22;777;47.156;8.326;2023-03-31T06:54:10;11.30;99.90
1568;DHT22;777;47.156;8.326;2023-03-31T06:56:36;11.20;99.90
1568;DHT22;777;47.156;8.326;2023-03-31T06:59:03;11.20;99.90
1568;DHT22;777;47.156;8.326;2023-03-31T07:01:31;11.20;99.90
1568;DHT22;777;47.156;8.326;2023-03-31T07:04:02;11.20;99.90
1568;DHT22;777;47.156;8.326;2023-03-31T07:06:29;11.20;99.90
1568;DHT22;777;47.156;8.326;2023-03-31T07:08:58;11.20;99.90
1568;DHT22;777;47.156;8.326;2023-03-31T07:11:25;11.20;99.90
1568;DHT22;777;47.156;8.326;2023-03-31T07:13:52;11.30;99.90
1568;DHT22;777;47.156;8.326;2023-03-31T07:16:19;11.30;99.90
1568;DHT22;777;47.156;8.326;2023-03-31T07:18:46;11.40;99.90
1568;DHT22;777;47.156;8.326;2023-03-31T07:21:13;11.40;99.90
1568;DHT22;777;47.156;8.326;2023-03-31T07:23:40;11.40;99.90
1568;DHT22;777;47.156;8.326;2023-03-31T07:26:08;11.50;99.90
1568;DHT22;777;47.156;8.326;2023-03-31T07:28:36;11.50;99.90
1568;DHT22;777;47.156;8.326;2023-03-31T07:31:09;11.70;99.90
1568;DHT22;777;47.156;8.326;2023-03-31T07:33:36;11.80;99.90
1568;DHT22;777;47.156;8.326;2023-03-31T07:36:03;12.00;99.90
1568;DHT22;777;47.156;8.326;2023-03-31T07:41:42;12.30;99.90
1568;DHT22;777;47.156;8.326;2023-03-31T07:44:09;12.40;99.90
1568;DHT22;777;47.156;8.326;2023-03-31T07:46:36;12.50;99.90
1568;DHT22;777;47.156;8.326;2023-03-31T07:49:03;12.70;99.90
1568;DHT22;777;47.156;8.326;2023-03-31T07:51:32;12.70;99.90
1568;DHT22;777;47.156;8.326;2023-03-31T07:53:59;12.70;99.90
1568;DHT22;777;47.156;8.326;2023-03-31T07:56:26;12.70;99.90
1568;DHT22;777;47.156;8.326;2023-03-31T07:58:54;12.80;99.90
1568;DHT22;777;47.156;8.326;2023-03-31T08:01:22;12.90;99.90
1568;DHT22;777;47.156;8.326;2023-03-31T08:03:50;13.10;99.90
1568;DHT22;777;47.156;8.326;2023-03-31T08:06:37;13.30;99.90
1568;DHT22;777;47.156;8.326;2023-03-31T08:09:05;13.50;99.90
1568;DHT22;777;47.156;8.326;2023-03-31T08:11:32;13.60;99.90
1568;DHT22;777;47.156;8.326;2023-03-31T08:14:01;13.80;99.90
1568;DHT22;777;47.156;8.326;2023-03-31T08:16:28;13.80;99.90
1568;DHT22;777;47.156;8.326;2023-03-31T08:18:55;13.90;99.90
1568;DHT22;777;47.156;8.326;2023-03-31T08:21:22;14.00;99.90
1568;DHT22;777;47.156;8.326;2023-03-31T08:23:51;14.10;99.90
1568;DHT22;777;47.156;8.326;2023-03-31T08:26:18;14.20;99.90
1568;DHT22;777;47.156;8.326;2023-03-31T08:28:46;14.30;99.90
1568;DHT22;777;47.156;8.326;2023-03-31T08:31:16;14.30;99.90
1568;DHT22;777;47.156;8.326;2023-03-31T08:33:44;14.50;99.90
1568;DHT22;777;47.156;8.326;2023-03-31T08:36:11;14.60;99.90
1568;DHT22;777;47.156;8.326;2023-03-31T08:38:40;14.60;99.90
1568;DHT22;777;47.156;8.326;2023-03-31T08:41:20;14.60;99.90
1568;DHT22;777;47.156;8.326;2023-03-31T08:43:53;14.70;99.90
1568;DHT22;777;47.156;8.326;2023-03-31T08:46:22;14.70;99.90
1568;DHT22;777;47.156;8.326;2023-03-31T08:48:53;14.60;99.90
1568;DHT22;777;47.156;8.326;2023-03-31T08:51:23;14.50;99.90
1568;DHT22;777;47.156;8.326;2023-03-31T08:53:58;14.60;99.90
1568;DHT22;777;47.156;8.326;2023-03-31T08:56:28;14.70;99.90
1568;DHT22;777;47.156;8.326;2023-03-31T08:58:55;14.80;99.90
1568;DHT22;777;47.156;8.326;2023-03-31T09:01:35;14.70;99.90
1568;DHT22;777;47.156;8.326;2023-03-31T09:04:19;14.70;99.90
1568;DHT22;777;47.156;8.326;2023-03-31T09:06:53;14.40;99.90
1568;DHT22;777;47.156;8.326;2023-03-31T09:09:34;13.50;99.90
1568;DHT22;777;47.156;8.326;2023-03-31T09:12:10;12.30;99.90
1568;DHT22;777;47.156;8.326;2023-03-31T09:14:42;10.90;99.90
1568;DHT22;777;47.156;8.326;2023-03-31T09:17:19;10.20;99.90
1568;DHT22;777;47.156;8.326;2023-03-31T09:19:51;9.20;99.90
1568;DHT22;777;47.156;8.326;2023-03-31T09:22:23;9.20;99.90
1568;DHT22;777;47.156;8.326;2023-03-31T09:24:56;9.30;99.90
1568;DHT22;777;47.156;8.326;2023-03-31T09:27:27;9.60;99.90
1568;DHT22;777;47.156;8.326;2023-03-31T09:30:00;10.10;99.90
1568;DHT22;777;47.156;8.326;2023-03-31T09:32:31;11.30;99.90
1568;DHT22;777;47.156;8.326;2023-03-31T09:35:00;11.50;99.90
1568;DHT22;777;47.156;8.326;2023-03-31T09:37:30;11.60;99.90
1568;DHT22;777;47.156;8.326;2023-03-31T09:39:59;11.90;99.90
1568;DHT22;777;47.156;8.326;2023-03-31T09:42:33;12.20;99.90
1568;DHT22;777;47.156;8.326;2023-03-31T09:45:00;12.40;99.90
1568;DHT22;777;47.156;8.326;2023-03-31T09:47:33;12.70;99.90
1568;DHT22;777;47.156;8.326;2023-03-31T09:50:04;14.10;99.90
1568;DHT22;777;47.156;8.326;2023-03-31T09:52:34;15.60;99.90
1568;DHT22;777;47.156;8.326;2023-03-31T09:55:08;16.30;99.90
1568;DHT22;777;47.156;8.326;2023-03-31T09:57:41;16.50;99.90
1568;DHT22;777;47.156;8.326;2023-03-31T10:00:14;15.90;99.90
1568;DHT22;777;47.156;8.326;2023-03-31T10:02:47;15.40;99.90
1568;DHT22;777;47.156;8.326;2023-03-31T10:05:28;15.40;99.90
1568;DHT22;777;47.156;8.326;2023-03-31T10:08:21;15.40;99.90
1568;DHT22;777;47.156;8.326;2023-03-31T10:10:52;16.50;99.90
1568;DHT22;777;47.156;8.326;2023-03-31T10:13:22;16.30;99.90
1568;DHT22;777;47.156;8.326;2023-03-31T10:15:54;15.90;99.90
1568;DHT22;777;47.156;8.326;2023-03-31T10:18:32;15.60;99.90
1568;DHT22;777;47.156;8.326;2023-03-31T10:21:00;15.40;99.90
1568;DHT22;777;47.156;8.326;2023-03-31T10:23:29;15.30;99.90
1568;DHT22;777;47.156;8.326;2023-03-31T10:25:57;15.90;99.90
1568;DHT22;777;47.156;8.326;2023-03-31T10:28:25;16.80;99.90
1568;DHT22;777;47.156;8.326;2023-03-31T10:30:54;17.30;99.90
1568;DHT22;777;47.156;8.326;2023-03-31T10:33:25;16.90;99.90
1568;DHT22;777;47.156;8.326;2023-03-31T10:35:57;16.70;99.90
1568;DHT22;777;47.156;8.326;2023-03-31T10:38:27;16.60;99.90
1568;DHT22;777;47.156;8.326;2023-03-31T10:40:56;16.40;99.90
1568;DHT22;777;47.156;8.326;2023-03-31T10:43:27;16.10;99.90
1568;DHT22;777;47.156;8.326;2023-03-31T10:45:56;16.00;99.90
1568;DHT22;777;47.156;8.326;2023-03-31T10:48:27;15.90;99.90
1568;DHT22;777;47.156;8.326;2023-03-31T10:50:58;15.90;99.90
1568;DHT22;777;47.156;8.326;2023-03-31T10:53:25;15.90;99.90
1568;DHT22;777;47.156;8.326;2023-03-31T10:56:01;15.90;99.90
1568;DHT22;777;47.156;8.326;2023-03-31T10:58:44;16.70;99.90
1568;DHT22;777;47.156;8.326;2023-03-31T11:01:26;17.60;99.90
1568;DHT22;777;47.156;8.326;2023-03-31T11:04:16;18.10;99.90
1568;DHT22;777;47.156;8.326;2023-03-31T11:06:56;17.90;99.90
1568;DHT22;777;47.156;8.326;2023-03-31T11:09:38;17.90;99.90
1568;DHT22;777;47.156;8.326;2023-03-31T11:12:17;18.50;99.90
1568;DHT22;777;47.156;8.326;2023-03-31T11:14:53;18.40;99.90
1568;DHT22;777;47.156;8.326;2023-03-31T11:17:34;18.30;99.90
1568;DHT22;777;47.156;8.326;2023-03-31T11:20:13;17.60;99.20
1568;DHT22;777;47.156;8.326;2023-03-31T11:22:45;16.90;99.90
1568;DHT22;777;47.156;8.326;2023-03-31T11:25:22;16.30;99.90
1568;DHT22;777;47.156;8.326;2023-03-31T11:28:13;16.30;99.90
1568;DHT22;777;47.156;8.326;2023-03-31T11:30:49;17.00;99.90
1568;DHT22;777;47.156;8.326;2023-03-31T11:33:32;17.50;99.90
1568;DHT22;777;47.156;8.326;2023-03-31T11:36:16;17.90;98.80
1568;DHT22;777;47.156;8.326;2023-03-31T11:38:51;17.60;96.90
1568;DHT22;777;47.156;8.326;2023-03-31T11:41:30;16.10;98.10
1568;DHT22;777;47.156;8.326;2023-03-31T11:44:00;15.70;99.40
1568;DHT22;777;47.156;8.326;2023-03-31T11:46:34;15.30;99.90
1568;DHT22;777;47.156;8.326;2023-03-31T11:49:05;15.40;99.90
1568;DHT22;777;47.156;8.326;2023-03-31T11:51:42;15.40;99.90
1568;DHT22;777;47.156;8.326;2023-03-31T11:54:16;15.70;99.90
1568;DHT22;777;47.156;8.326;2023-03-31T11:56:43;17.00;99.90
1568;DHT22;777;47.156;8.326;2023-03-31T11:59:13;17.30;97.20
1568;DHT22;777;47.156;8.326;2023-03-31T12:01:44;18.30;97.70
1568;DHT22;777;47.156;8.326;2023-03-31T12:04:23;18.60;95.70
1568;DHT22;777;47.156;8.326;2023-03-31T12:06:59;17.20;96.90
1568;DHT22;777;47.156;8.326;2023-03-31T12:09:36;15.80;99.90
1568;DHT22;777;47.156;8.326;2023-03-31T12:12:06;15.20;99.90
1568;DHT22;777;47.156;8.326;2023-03-31T12:14:38;14.90;99.90
1568;DHT22;777;47.156;8.326;2023-03-31T12:17:10;14.30;99.90
1568;DHT22;777;47.156;8.326;2023-03-31T12:19:45;14.00;99.90
1568;DHT22;777;47.156;8.326;2023-03-31T12:22:17;13.70;99.90
1568;DHT22;777;47.156;8.326;2023-03-31T12:24:45;13.40;99.90
1568;DHT22;777;47.156;8.326;2023-03-31T12:27:16;12.10;99.90
1568;DHT22;777;47.156;8.326;2023-03-31T12:29:52;11.20;99.90
1568;DHT22;777;47.156;8.326;2023-03-31T12:32:22;11.30;99.90
1568;DHT22;777;47.156;8.326;2023-03-31T12:34:56;11.30;99.90
1568;DHT22;777;47.156;8.326;2023-03-31T12:40:53;10.80;99.90
1568;DHT22;777;47.156;8.326;2023-03-31T12:46:21;9.60;99.90
1568;DHT22;777;47.156;8.326;2023-03-31T12:49:08;8.00;99.90
1568;DHT22;777;47.156;8.326;2023-03-31T12:51:53;8.80;99.90
1568;DHT22;777;47.156;8.326;2023-03-31T12:54:43;9.30;99.90
1568;DHT22;777;47.156;8.326;2023-03-31T12:57:19;9.20;99.90
1568;DHT22;777;47.156;8.326;2023-03-31T13:00:22;9.30;99.90
1568;DHT22;777;47.156;8.326;2023-03-31T13:02:50;9.40;99.90
1568;DHT22;777;47.156;8.326;2023-03-31T13:05:46;9.50;99.90
1568;DHT22;777;47.156;8.326;2023-03-31T13:08:52;9.60;99.90
1568;DHT22;777;47.156;8.326;2023-03-31T13:11:21;9.70;99.90
1568;DHT22;777;47.156;8.326;2023-03-31T13:14:01;10.00;99.90
1568;DHT22;777;47.156;8.326;2023-03-31T13:16:30;10.00;99.90
1568;DHT22;777;47.156;8.326;2023-03-31T13:18:57;10.00;99.90
1568;DHT22;777;47.156;8.326;2023-03-31T13:21:25;10.30;99.90
1568;DHT22;777;47.156;8.326;2023-03-31T13:23:52;10.40;99.90
1568;DHT22;777;47.156;8.326;2023-03-31T13:26:40;9.10;99.90
1568;DHT22;777;47.156;8.326;2023-03-31T13:29:22;8.10;99.90
1568;DHT22;777;47.156;8.326;2023-03-31T13:32:21;8.00;99.90
1568;DHT22;777;47.156;8.326;2023-03-31T13:34:56;8.00;99.90
1568;DHT22;777;47.156;8.326;2023-03-31T13:40:42;8.00;99.90
1568;DHT22;777;47.156;8.326;2023-03-31T13:46:35;8.30;99.90
1568;DHT22;777;47.156;8.326;2023-03-31T13:49:30;8.40;99.90
1568;DHT22;777;47.156;8.326;2023-03-31T13:52:09;8.70;99.90
1568;DHT22;777;47.156;8.326;2023-03-31T13:55:10;10.60;99.90
1568;DHT22;777;47.156;8.326;2023-03-31T13:57:55;12.00;99.90
1568;DHT22;777;47.156;8.326;2023-03-31T14:00:44;12.90;99.90
1568;DHT22;777;47.156;8.326;2023-03-31T14:03:22;12.20;99.90
1568;DHT22;777;47.156;8.326;2023-03-31T14:05:56;11.30;99.90
1568;DHT22;777;47.156;8.326;2023-03-31T14:08:33;11.20;99.90
1568;DHT22;777;47.156;8.326;2023-03-31T14:11:20;11.30;99.90
1568;DHT22;777;47.156;8.326;2023-03-31T14:14:05;11.70;99.90
1568;DHT22;777;47.156;8.326;2023-03-31T14:16:37;11.80;99.90
1568;DHT22;777;47.156;8.326;2023-03-31T14:19:20;11.90;99.90
1568;DHT22;777;47.156;8.326;2023-03-31T14:21:57;12.90;99.90
1568;DHT22;777;47.156;8.326;2023-03-31T14:24:30;14.00;99.90
1568;DHT22;777;47.156;8.326;2023-03-31T14:27:07;14.40;99.90
1568;DHT22;777;47.156;8.326;2023-03-31T14:29:43;15.10;99.90
1568;DHT22;777;47.156;8.326;2023-03-31T14:32:21;15.30;99.90
1568;DHT22;777;47.156;8.326;2023-03-31T14:35:01;15.50;99.90
1568;DHT22;777;47.156;8.326;2023-03-31T14:37:30;15.50;99.90
1568;DHT22;777;47.156;8.326;2023-03-31T14:39:59;15.70;99.90
1568;DHT22;777;47.156;8.326;2023-03-31T14:42:34;14.70;99.90
1568;DHT22;777;47.156;8.326;2023-03-31T14:45:13;14.80;99.90
1568;DHT22;777;47.156;8.326;2023-03-31T14:47:52;15.50;99.90
1568;DHT22;777;47.156;8.326;2023-03-31T14:50:20;14.50;99.90
1568;DHT22;777;47.156;8.326;2023-03-31T14:52:48;13.60;99.90
1568;DHT22;777;47.156;8.326;2023-03-31T14:55:22;13.20;99.90
1568;DHT22;777;47.156;8.326;2023-03-31T14:57:50;13.00;99.90
1568;DHT22;777;47.156;8.326;2023-03-31T15:00:24;12.80;99.90
1568;DHT22;777;47.156;8.326;2023-03-31T15:02:53;12.70;99.90
1568;DHT22;777;47.156;8.326;2023-03-31T15:05:25;12.60;99.90
1568;DHT22;777;47.156;8.326;2023-03-31T15:07:56;12.50;99.90
1568;DHT22;777;47.156;8.326;2023-03-31T15:10:25;12.40;99.90
1568;DHT22;777;47.156;8.326;2023-03-31T15:12:55;12.50;99.90
1568;DHT22;777;47.156;8.326;2023-03-31T15:15:22;12.80;99.90
1568;DHT22;777;47.156;8.326;2023-03-31T15:17:50;13.00;99.90
1568;DHT22;777;47.156;8.326;2023-03-31T15:20:25;13.00;99.90
1568;DHT22;777;47.156;8.326;2023-03-31T15:22:54;12.90;99.90
1568;DHT22;777;47.156;8.326;2023-03-31T15:25:23;12.70;99.90
1568;DHT22;777;47.156;8.326;2023-03-31T15:27:54;11.90;99.90
1568;DHT22;777;47.156;8.326;2023-03-31T15:30:24;8.70;99.90
1568;DHT22;777;47.156;8.326;2023-03-31T15:32:53;7.80;99.90
1568;DHT22;777;47.156;8.326;2023-03-31T15:35:23;7.50;99.90
1568;DHT22;777;47.156;8.326;2023-03-31T15:37:54;7.50;99.90
1568;DHT22;777;47.156;8.326;2023-03-31T15:40:24;7.50;99.90
1568;DHT22;777;47.156;8.326;2023-03-31T15:42:53;7.40;99.90
1568;DHT22;777;47.156;8.326;2023-03-31T15:45:52;7.50;99.90
1568;DHT22;777;47.156;8.326;2023-03-31T15:48:22;7.50;99.90
1568;DHT22;777;47.156;8.326;2023-03-31T15:50:52;7.90;99.90
1568;DHT22;777;47.156;8.326;2023-03-31T15:53:31;8.40;99.90
1568;DHT22;777;47.156;8.326;2023-03-31T15:56:00;8.40;99.90
1568;DHT22;777;47.156;8.326;2023-03-31T15:58:53;8.60;99.90
1568;DHT22;777;47.156;8.326;2023-03-31T16:01:22;8.90;99.90
1568;DHT22;777;47.156;8.326;2023-03-31T16:03:54;9.90;99.90
1568;DHT22;777;47.156;8.326;2023-03-31T16:06:32;9.90;99.90
1568;DHT22;777;47.156;8.326;2023-03-31T16:09:01;11.40;99.90
1568;DHT22;777;47.156;8.326;2023-03-31T16:11:35;12.20;99.90
1568;DHT22;777;47.156;8.326;2023-03-31T16:14:07;13.10;99.90
1568;DHT22;777;47.156;8.326;2023-03-31T16:16:36;13.70;99.90
1568;DHT22;777;47.156;8.326;2023-03-31T16:19:05;12.80;99.90
1568;DHT22;777;47.156;8.326;2023-03-31T16:21:39;12.60;99.90
1568;DHT22;777;47.156;8.326;2023-03-31T16:24:07;12.60;99.90
1568;DHT22;777;47.156;8.326;2023-03-31T16:26:35;12.00;99.90
1568;DHT22;777;47.156;8.326;2023-03-31T16:29:04;11.20;99.90
1568;DHT22;777;47.156;8.326;2023-03-31T16:31:34;10.70;99.90
1568;DHT22;777;47.156;8.326;2023-03-31T16:34:04;11.50;99.90
1568;DHT22;777;47.156;8.326;2023-03-31T16:36:31;11.60;99.90
1568;DHT22;777;47.156;8.326;2023-03-31T16:39:00;11.00;99.90
1568;DHT22;777;47.156;8.326;2023-03-31T16:41:30;10.90;99.90
1568;DHT22;777;47.156;8.326;2023-03-31T16:43:57;12.00;99.90
1568;DHT22;777;47.156;8.326;2023-03-31T16:46:25;12.80;99.90
1568;DHT22;777;47.156;8.326;2023-03-31T16:48:52;12.90;99.90
1568;DHT22;777;47.156;8.326;2023-03-31T16:51:19;13.10;99.90
1568;DHT22;777;47.156;8.326;2023-03-31T16:53:46;13.00;99.90
1568;DHT22;777;47.156;8.326;2023-03-31T16:56:18;12.80;99.90
1568;DHT22;777;47.156;8.326;2023-03-31T16:58:46;12.60;99.90
1568;DHT22;777;47.156;8.326;2023-03-31T17:01:13;12.10;99.90
1568;DHT22;777;47.156;8.326;2023-03-31T17:03:40;11.90;99.90
1568;DHT22;777;47.156;8.326;2023-03-31T17:06:09;11.30;99.90
1568;DHT22;777;47.156;8.326;2023-03-31T17:08:37;10.60;99.90
1568;DHT22;777;47.156;8.326;2023-03-31T17:11:06;10.20;99.90
1568;DHT22;777;47.156;8.326;2023-03-31T17:13:37;10.00;99.90
1568;DHT22;777;47.156;8.326;2023-03-31T17:16:04;9.90;99.90
1568;DHT22;777;47.156;8.326;2023-03-31T17:18:31;9.70;99.90
1568;DHT22;777;47.156;8.326;2023-03-31T17:21:03;9.60;99.90